Weather History for Pontiac, MI

Change the Weather History Date:

Thursday, January 31, 2013

  Actual Average Record
Temperature  
Mean Temperature 26 °F -  
Max Temperature 37 °F 30 °F 53 °F (2012)
Min Temperature 15 °F 16 °F 5 °F (2011)
Degree Days  
Heating Degree Days 38    
Moisture  
Dew Point 15 °F    
Average Humidity 74    
Maximum Humidity 88    
Minimum Humidity 45    
Precipitation  
Precipitation 0.00 in - - ()
Snow  
Snow 0.00 in - - ()
Snow Depth 1.00 in    
Sea Level Pressure  
Sea Level Pressure 29.60 in    
Wind  
Wind Speed 22 mph (West)    
Max Wind Speed 37 mph    
Max Gust Speed 45 mph    
Visibility 4 miles    
Events Fog , Snow    
Averages and records for this station are not official NWS values.
T = Trace of Precipitation, MM = Missing Value Source: NWS Daily Summary

Daily Weather History Graph

Daily Weather History Graph

Search for Another Location

Airport:

Trip Planner

Search our weather history database for the weather conditions in past years. The results will help you decide how hot, cold, wet, or windy it might be!

Date:

Astronomy

Jan. 31, 2013 Rise Set
Actual Time 7:48 AM EST 5:46 PM EST
Civil Twilight 7:18 AM EST 6:16 PM EST
Nautical Twilight 6:44 AM EST 6:50 PM EST
Astronomical Twilight 6:11 AM EST 7:23 PM EST
Moon 10:55 PM EST (1/31) 9:40 AM EST (1/31)
Length of Visible Light 10h 57m
Length of Day
9h 57m
Waning Gibbous, 80% of the Moon is Illuminated
Jan 31
Waning Gibbous
Feb 3
Last Quarter
Feb 10
New
Feb 17
First Quarter
Feb 25
Full

Hourly Weather History & Observations

Time (EST) Temp. Windchill Dew Point Humidity Pressure Visibility Wind Dir Wind Speed Gust Speed Precip Events Conditions
12:53 AM 37.0 °F 25.6 °F 21.9 °F 54% 29.25 in 10.0 mi West 24.2 mph 42.6 mph 0.00 in   Overcast
1:38 AM 35.6 °F 21.3 °F 19.4 °F 52% 29.27 in 10.0 mi West 36.8 mph 43.7 mph N/A   Overcast
1:53 AM 35.1 °F 22.5 °F 19.0 °F 52% 29.29 in 10.0 mi West 26.5 mph 34.5 mph N/A   Mostly Cloudy
2:00 AM 35.6 °F 24.0 °F 17.6 °F 48% 29.29 in 10.0 mi West 23.0 mph 40.3 mph N/A   Mostly Cloudy
2:53 AM 33.1 °F 19.3 °F 15.1 °F 48% 29.36 in 9.0 mi West 28.8 mph 44.9 mph 0.00 in Snow Light Snow
3:53 AM 30.9 °F 16.2 °F 12.9 °F 47% 29.39 in 10.0 mi West 29.9 mph 43.7 mph 0.00 in   Overcast
4:53 AM 32.0 °F 20.5 °F 12.9 °F 45% 29.42 in 10.0 mi West 18.4 mph 35.7 mph 0.00 in   Overcast
5:53 AM 21.0 °F 4.3 °F 13.1 °F 71% 29.46 in 10.0 mi West 24.2 mph 32.2 mph 0.00 in Snow Light Snow
6:25 AM 23.0 °F 6.9 °F 14.0 °F 68% 29.46 in 2.5 mi West 24.2 mph 34.5 mph 0.00 in Snow Light Snow
6:33 AM 23.0 °F 8.0 °F 14.0 °F 68% 29.46 in 1.8 mi West 20.7 mph 31.1 mph 0.00 in Snow Light Snow
6:36 AM 23.0 °F 8.0 °F 14.0 °F 68% 29.46 in 4.0 mi West 20.7 mph 29.9 mph 0.00 in Snow Light Snow
6:53 AM 22.1 °F 7.6 °F 14.0 °F 71% 29.49 in 4.0 mi West 18.4 mph - 0.00 in Snow Light Snow
7:00 AM 23.0 °F 8.7 °F 15.8 °F 74% 29.47 in 5.0 mi West 18.4 mph 24.2 mph 0.00 in Snow Light Snow
7:21 AM 23.0 °F 8.7 °F 15.8 °F 74% 29.48 in 2.0 mi WNW 18.4 mph 25.3 mph 0.00 in Snow Light Snow
7:27 AM 23.0 °F 6.9 °F 15.8 °F 74% 29.49 in 1.0 mi West 24.2 mph 31.1 mph 0.00 in Snow Light Snow
7:30 AM 23.0 °F 6.6 °F 15.8 °F 74% 29.49 in 0.8 mi West 25.3 mph 33.4 mph 0.00 in Snow Light Snow
7:42 AM 23.0 °F 7.2 °F 15.8 °F 74% 29.49 in 1.8 mi West 23.0 mph 32.2 mph 0.00 in Snow Light Snow
7:45 AM 23.0 °F 8.0 °F 15.8 °F 74% 29.50 in 3.0 mi West 20.7 mph 32.2 mph 0.00 in Snow Light Snow
7:53 AM 21.0 °F 5.0 °F 16.0 °F 81% 29.53 in 5.0 mi West 21.9 mph 34.5 mph 0.00 in Snow Light Snow
8:01 AM 21.2 °F 4.2 °F 15.8 °F 80% 29.50 in 8.0 mi West 25.3 mph 29.9 mph 0.00 in Snow Light Snow
8:38 AM 21.2 °F 4.2 °F 15.8 °F 80% 29.53 in 1.8 mi West 25.3 mph 32.2 mph 0.00 in Snow Light Snow
8:45 AM 21.2 °F 4.5 °F 15.8 °F 80% 29.53 in 0.8 mi West 24.2 mph 33.4 mph 0.00 in Snow Light Snow
8:53 AM 22.1 °F 7.6 °F 19.0 °F 88% 29.57 in 0.5 mi West 18.4 mph 28.8 mph 0.00 in Fog , Snow Light Snow
9:17 AM 23.0 °F 8.0 °F 19.4 °F 86% 29.55 in 1.2 mi West 20.7 mph 29.9 mph 0.00 in Snow Light Snow
9:34 AM 23.0 °F 9.2 °F 19.4 °F 86% 29.56 in 0.8 mi West 17.3 mph 32.2 mph 0.00 in Snow Light Snow
9:53 AM 22.1 °F 7.2 °F 19.0 °F 88% 29.60 in 1.2 mi West 19.6 mph - 0.00 in Snow Light Snow
9:59 AM 23.0 °F 8.7 °F 15.8 °F 74% 29.57 in 6.0 mi West 18.4 mph 25.3 mph 0.00 in Snow Light Snow
10:11 AM 23.0 °F 7.6 °F 15.8 °F 74% 29.57 in 5.0 mi West 21.9 mph 26.5 mph 0.00 in Snow Light Snow
10:22 AM 23.0 °F 7.2 °F 15.8 °F 74% 29.58 in 2.0 mi West 23.0 mph 28.8 mph 0.00 in Snow Light Snow
10:28 AM 23.0 °F 8.3 °F 15.8 °F 74% 29.58 in 1.8 mi West 19.6 mph 28.8 mph 0.00 in Snow Light Snow
10:53 AM 22.1 °F 8.5 °F 18.0 °F 84% 29.62 in 1.5 mi West 16.1 mph 29.9 mph 0.00 in Snow Light Snow
10:58 AM 23.0 °F 9.6 °F 17.6 °F 80% 29.60 in 2.5 mi West 16.1 mph 24.2 mph 0.00 in Snow Light Snow
11:01 AM 23.0 °F 8.7 °F 17.6 °F 80% 29.60 in 4.0 mi West 18.4 mph 25.3 mph 0.00 in Snow Light Snow
11:20 AM 23.0 °F 9.2 °F 17.6 °F 80% 29.60 in 1.8 mi West 17.3 mph 27.6 mph 0.00 in Snow Light Snow
11:51 AM 23.0 °F 7.2 °F 19.4 °F 86% 29.61 in 0.2 mi West 23.0 mph 28.8 mph 0.00 in Fog , Snow Light Snow
11:53 AM 23.0 °F 9.2 °F 19.9 °F 88% 29.64 in 0.2 mi West 17.3 mph 28.8 mph 0.00 in Fog , Snow Light Snow
11:56 AM 19.4 °F 6.0 °F 15.8 °F 86% 29.61 in 1.0 mi West 13.8 mph 26.5 mph 0.00 in Snow Light Snow
12:08 PM 23.0 °F 8.7 °F 17.6 °F 80% 29.61 in 1.2 mi West 18.4 mph 32.2 mph 0.00 in Snow Light Snow
12:15 PM 23.0 °F 8.0 °F 17.6 °F 80% 29.61 in 4.0 mi West 20.7 mph 32.2 mph 0.00 in Snow Light Snow
12:29 PM 23.0 °F 6.9 °F 17.6 °F 80% 29.62 in 2.5 mi WSW 24.2 mph 29.9 mph 0.00 in Snow Light Snow
12:38 PM 23.0 °F 9.6 °F 17.6 °F 80% 29.61 in 4.0 mi West 16.1 mph 31.1 mph 0.00 in Snow Blowing Snow
12:46 PM 23.0 °F 6.6 °F 17.6 °F 80% 29.62 in 4.0 mi West 25.3 mph 35.7 mph 0.00 in Snow Blowing Snow
12:53 PM 22.1 °F 5.7 °F 17.1 °F 81% 29.65 in 3.0 mi West 24.2 mph 35.7 mph 0.00 in Snow Blowing Snow
1:53 PM 25.0 °F 9.9 °F 15.1 °F 66% 29.66 in 7.0 mi West 23.0 mph 33.4 mph N/A Snow Blowing Snow
2:53 PM 19.9 °F 3.9 °F 10.9 °F 68% 29.69 in 9.0 mi WNW 20.7 mph 29.9 mph 0.00 in Snow Light Snow
3:53 PM 21.0 °F 7.6 °F 8.1 °F 57% 29.71 in 10.0 mi West 15.0 mph 34.5 mph 0.00 in   Overcast
4:41 PM 19.4 °F 4.1 °F 12.2 °F 74% 29.69 in 1.2 mi West 18.4 mph - 0.00 in Snow Light Snow
4:48 PM 19.4 °F 4.1 °F 12.2 °F 74% 29.69 in 1.5 mi WNW 18.4 mph 24.2 mph 0.00 in Snow Light Snow
4:53 PM 19.0 °F 2.7 °F 14.0 °F 81% 29.73 in 1.0 mi West 20.7 mph 27.6 mph 0.00 in Snow Light Snow
5:00 PM 19.4 °F 4.1 °F 15.8 °F 86% 29.70 in 0.5 mi West 18.4 mph - 0.00 in Snow Snow
5:07 PM 17.6 °F 1.3 °F 14.0 °F 86% 29.70 in 0.8 mi West 19.6 mph 32.2 mph 0.00 in Snow Light Snow
5:13 PM 17.6 °F 1.7 °F 12.2 °F 79% 29.70 in 2.5 mi West 18.4 mph - 0.00 in Snow Light Snow
5:23 PM 17.6 °F 1.3 °F 12.2 °F 79% 29.71 in 1.5 mi West 19.6 mph 25.3 mph 0.00 in Snow Light Snow
5:41 PM 17.6 °F 3.7 °F 14.0 °F 86% 29.71 in 2.0 mi West 13.8 mph - 0.00 in Snow Light Snow
5:48 PM 17.6 °F 1.7 °F 12.2 °F 79% 29.71 in 3.0 mi West 18.4 mph 24.2 mph 0.00 in Snow Light Snow
5:50 PM 17.6 °F 2.2 °F 12.2 °F 79% 29.71 in 4.0 mi West 17.3 mph 24.2 mph 0.00 in Snow Light Snow
5:53 PM 18.0 °F 2.6 °F 12.0 °F 78% 29.76 in 4.0 mi WNW 17.3 mph - 0.00 in Snow Light Snow
6:53 PM 18.0 °F 4.2 °F 9.0 °F 68% 29.79 in 10.0 mi West 13.8 mph - 0.00 in   Overcast
7:47 PM 17.6 °F 3.2 °F 10.4 °F 73% 29.77 in 2.0 mi West 15.0 mph - 0.00 in Snow Light Snow
7:53 PM 17.1 °F 3.0 °F 10.9 °F 77% 29.82 in 2.5 mi West 13.8 mph - 0.00 in Snow Light Snow
8:00 PM 17.6 °F 2.7 °F 10.4 °F 73% 29.77 in 8.0 mi West 16.1 mph - 0.00 in Snow Light Snow
8:29 PM 17.6 °F 2.2 °F 10.4 °F 73% 29.78 in 6.0 mi West 17.3 mph 24.2 mph 0.00 in Snow Light Snow
8:53 PM 17.6 °F 3.2 °F 10.4 °F 73% 29.78 in 9.0 mi West 15.0 mph - N/A Snow Light Snow
9:53 PM 16.0 °F -0.4 °F 9.0 °F 74% 29.85 in 8.0 mi West 18.4 mph - 0.00 in Snow Light Snow
10:53 PM 16.0 °F 2.3 °F 10.0 °F 77% 29.86 in 10.0 mi West 12.7 mph 20.7 mph 0.00 in   Overcast
11:53 PM 15.1 °F -0.1 °F 9.0 °F 77% 29.87 in 8.0 mi West 15.0 mph - 0.00 in   Scattered Clouds